sensor_id;sensor_type;location;lat;lon;timestamp;temperature;humidity
25058;DHT22;13057;50.978;11.034;2022-12-19T00:01:38;-2.10;99.90
25058;DHT22;13057;50.978;11.034;2022-12-19T00:04:09;-2.00;99.90
25058;DHT22;13057;50.978;11.034;2022-12-19T00:06:37;-2.10;99.90
25058;DHT22;13057;50.978;11.034;2022-12-19T00:09:04;-2.10;99.90
25058;DHT22;13057;50.978;11.034;2022-12-19T00:11:30;-2.00;99.90
25058;DHT22;13057;50.978;11.034;2022-12-19T00:13:56;-2.00;99.90
25058;DHT22;13057;50.978;11.034;2022-12-19T00:16:24;-2.00;99.90
25058;DHT22;13057;50.978;11.034;2022-12-19T00:18:52;-2.00;99.90
25058;DHT22;13057;50.978;11.034;2022-12-19T00:21:20;-2.00;99.90
25058;DHT22;13057;50.978;11.034;2022-12-19T00:23:48;-1.90;99.90
25058;DHT22;13057;50.978;11.034;2022-12-19T00:26:19;-1.80;99.90
25058;DHT22;13057;50.978;11.034;2022-12-19T00:28:49;-1.80;99.90
25058;DHT22;13057;50.978;11.034;2022-12-19T00:31:16;-1.80;99.90
25058;DHT22;13057;50.978;11.034;2022-12-19T00:33:43;-1.70;99.90
25058;DHT22;13057;50.978;11.034;2022-12-19T00:36:11;-1.70;99.90
25058;DHT22;13057;50.978;11.034;2022-12-19T00:38:38;-1.50;99.90
25058;DHT22;13057;50.978;11.034;2022-12-19T00:41:07;-1.30;99.90
25058;DHT22;13057;50.978;11.034;2022-12-19T00:43:33;-1.10;99.90
25058;DHT22;13057;50.978;11.034;2022-12-19T00:46:02;-1.00;99.90
25058;DHT22;13057;50.978;11.034;2022-12-19T00:48:28;-1.00;99.90
25058;DHT22;13057;50.978;11.034;2022-12-19T00:50:59;-1.10;99.90
25058;DHT22;13057;50.978;11.034;2022-12-19T00:53:25;-1.00;99.90
25058;DHT22;13057;50.978;11.034;2022-12-19T00:55:51;-1.10;99.90
25058;DHT22;13057;50.978;11.034;2022-12-19T00:58:17;-0.90;99.90
25058;DHT22;13057;50.978;11.034;2022-12-19T01:00:43;-0.70;99.90
25058;DHT22;13057;50.978;11.034;2022-12-19T01:03:09;-0.60;99.90
25058;DHT22;13057;50.978;11.034;2022-12-19T01:05:35;-0.60;99.90
25058;DHT22;13057;50.978;11.034;2022-12-19T01:08:00;-0.70;99.90
25058;DHT22;13057;50.978;11.034;2022-12-19T01:10:26;-0.60;99.90
25058;DHT22;13057;50.978;11.034;2022-12-19T01:12:52;-0.60;99.90
25058;DHT22;13057;50.978;11.034;2022-12-19T01:15:19;-0.70;99.90
25058;DHT22;13057;50.978;11.034;2022-12-19T01:17:46;-0.90;99.90
25058;DHT22;13057;50.978;11.034;2022-12-19T01:20:16;-0.80;99.90
25058;DHT22;13057;50.978;11.034;2022-12-19T01:22:43;-0.90;99.90
25058;DHT22;13057;50.978;11.034;2022-12-19T01:25:10;-1.00;99.90
25058;DHT22;13057;50.978;11.034;2022-12-19T01:27:36;-1.10;99.90
25058;DHT22;13057;50.978;11.034;2022-12-19T01:30:03;-1.00;99.90
25058;DHT22;13057;50.978;11.034;2022-12-19T01:32:30;-1.00;99.90
25058;DHT22;13057;50.978;11.034;2022-12-19T01:34:55;-1.20;99.90
25058;DHT22;13057;50.978;11.034;2022-12-19T01:37:21;-1.30;99.90
25058;DHT22;13057;50.978;11.034;2022-12-19T01:39:47;-1.30;99.90
25058;DHT22;13057;50.978;11.034;2022-12-19T01:42:15;-1.20;99.90
25058;DHT22;13057;50.978;11.034;2022-12-19T01:44:57;-1.00;99.90
25058;DHT22;13057;50.978;11.034;2022-12-19T01:47:27;-0.90;99.90
25058;DHT22;13057;50.978;11.034;2022-12-19T01:49:54;-0.90;99.90
25058;DHT22;13057;50.978;11.034;2022-12-19T01:52:21;-0.90;99.90
25058;DHT22;13057;50.978;11.034;2022-12-19T01:54:47;-0.90;99.90
25058;DHT22;13057;50.978;11.034;2022-12-19T01:57:16;-1.00;99.90
25058;DHT22;13057;50.978;11.034;2022-12-19T01:59:47;-0.90;99.90
25058;DHT22;13057;50.978;11.034;2022-12-19T02:02:20;-1.00;99.90
25058;DHT22;13057;50.978;11.034;2022-12-19T02:04:48;-0.80;99.90
25058;DHT22;13057;50.978;11.034;2022-12-19T02:07:16;-0.70;99.90
25058;DHT22;13057;50.978;11.034;2022-12-19T02:09:45;-0.60;99.90
25058;DHT22;13057;50.978;11.034;2022-12-19T02:12:12;-0.50;99.90
25058;DHT22;13057;50.978;11.034;2022-12-19T02:14:39;-0.50;99.90
25058;DHT22;13057;50.978;11.034;2022-12-19T02:17:17;-0.60;99.90
25058;DHT22;13057;50.978;11.034;2022-12-19T02:28:44;-0.40;99.90
25058;DHT22;13057;50.978;11.034;2022-12-19T02:31:29;-0.40;99.90
25058;DHT22;13057;50.978;11.034;2022-12-19T02:34:09;-0.50;99.90
25058;DHT22;13057;50.978;11.034;2022-12-19T02:36:43;-0.50;99.90
25058;DHT22;13057;50.978;11.034;2022-12-19T02:39:23;-0.40;99.90
25058;DHT22;13057;50.978;11.034;2022-12-19T02:41:55;-0.50;99.90
25058;DHT22;13057;50.978;11.034;2022-12-19T02:44:27;-0.50;99.90
25058;DHT22;13057;50.978;11.034;2022-12-19T02:46:54;-0.30;99.90
25058;DHT22;13057;50.978;11.034;2022-12-19T02:49:21;-0.30;99.90
25058;DHT22;13057;50.978;11.034;2022-12-19T02:51:46;-0.30;99.90
25058;DHT22;13057;50.978;11.034;2022-12-19T02:54:12;-0.30;99.90
25058;DHT22;13057;50.978;11.034;2022-12-19T02:56:53;-0.30;99.90
25058;DHT22;13057;50.978;11.034;2022-12-19T02:59:33;-0.10;99.90
25058;DHT22;13057;50.978;11.034;2022-12-19T03:02:16;-0.10;99.90
25058;DHT22;13057;50.978;11.034;2022-12-19T03:04:58;-0.10;99.90
25058;DHT22;13057;50.978;11.034;2022-12-19T03:07:48;-0.20;99.90
25058;DHT22;13057;50.978;11.034;2022-12-19T03:10:26;-0.20;99.90
25058;DHT22;13057;50.978;11.034;2022-12-19T03:13:01;-0.10;99.90
25058;DHT22;13057;50.978;11.034;2022-12-19T03:15:30;-0.10;99.90
25058;DHT22;13057;50.978;11.034;2022-12-19T03:17:58;0.00;99.90
25058;DHT22;13057;50.978;11.034;2022-12-19T03:20:32;0.00;99.90
25058;DHT22;13057;50.978;11.034;2022-12-19T03:23:01;-0.20;99.90
25058;DHT22;13057;50.978;11.034;2022-12-19T03:25:28;-0.10;99.90
25058;DHT22;13057;50.978;11.034;2022-12-19T03:28:00;0.00;99.90
25058;DHT22;13057;50.978;11.034;2022-12-19T03:30:28;-0.10;99.90
25058;DHT22;13057;50.978;11.034;2022-12-19T03:32:56;0.10;99.90
25058;DHT22;13057;50.978;11.034;2022-12-19T03:35:26;0.10;99.90
25058;DHT22;13057;50.978;11.034;2022-12-19T03:37:57;0.20;99.90
25058;DHT22;13057;50.978;11.034;2022-12-19T03:40:28;0.20;99.90
25058;DHT22;13057;50.978;11.034;2022-12-19T03:43:03;0.20;99.90
25058;DHT22;13057;50.978;11.034;2022-12-19T03:45:48;0.20;99.90
25058;DHT22;13057;50.978;11.034;2022-12-19T03:48:28;0.20;99.90
25058;DHT22;13057;50.978;11.034;2022-12-19T03:51:16;0.30;99.90
25058;DHT22;13057;50.978;11.034;2022-12-19T03:53:58;0.30;99.90
25058;DHT22;13057;50.978;11.034;2022-12-19T03:56:35;0.50;99.90
25058;DHT22;13057;50.978;11.034;2022-12-19T03:59:07;0.60;99.90
25058;DHT22;13057;50.978;11.034;2022-12-19T04:01:34;0.60;99.90
25058;DHT22;13057;50.978;11.034;2022-12-19T04:04:02;0.60;99.90
25058;DHT22;13057;50.978;11.034;2022-12-19T04:06:31;0.50;99.90
25058;DHT22;13057;50.978;11.034;2022-12-19T04:08:58;0.50;99.90
25058;DHT22;13057;50.978;11.034;2022-12-19T04:11:28;0.50;99.90
25058;DHT22;13057;50.978;11.034;2022-12-19T04:14:02;0.60;99.90
25058;DHT22;13057;50.978;11.034;2022-12-19T04:16:39;0.70;99.90
25058;DHT22;13057;50.978;11.034;2022-12-19T04:19:13;0.70;99.90
25058;DHT22;13057;50.978;11.034;2022-12-19T04:21:44;1.10;99.90
25058;DHT22;13057;50.978;11.034;2022-12-19T04:24:17;1.40;99.90
25058;DHT22;13057;50.978;11.034;2022-12-19T04:26:46;1.60;99.90
25058;DHT22;13057;50.978;11.034;2022-12-19T04:29:14;1.80;99.90
25058;DHT22;13057;50.978;11.034;2022-12-19T04:31:41;1.90;99.90
25058;DHT22;13057;50.978;11.034;2022-12-19T04:34:08;2.00;99.90
25058;DHT22;13057;50.978;11.034;2022-12-19T04:36:34;2.00;99.90
25058;DHT22;13057;50.978;11.034;2022-12-19T04:39:00;2.10;99.90
25058;DHT22;13057;50.978;11.034;2022-12-19T04:41:26;2.10;99.90
25058;DHT22;13057;50.978;11.034;2022-12-19T04:43:53;2.10;99.90
25058;DHT22;13057;50.978;11.034;2022-12-19T04:46:21;2.10;99.90
25058;DHT22;13057;50.978;11.034;2022-12-19T04:48:46;2.10;99.90
25058;DHT22;13057;50.978;11.034;2022-12-19T04:51:12;2.20;99.90
25058;DHT22;13057;50.978;11.034;2022-12-19T04:53:38;2.20;99.90
25058;DHT22;13057;50.978;11.034;2022-12-19T04:56:05;2.30;99.90
25058;DHT22;13057;50.978;11.034;2022-12-19T04:58:32;2.30;99.90
25058;DHT22;13057;50.978;11.034;2022-12-19T05:01:01;2.30;99.90
25058;DHT22;13057;50.978;11.034;2022-12-19T05:03:28;2.30;99.90
25058;DHT22;13057;50.978;11.034;2022-12-19T05:06:03;2.30;99.90
25058;DHT22;13057;50.978;11.034;2022-12-19T05:08:30;2.40;99.90
25058;DHT22;13057;50.978;11.034;2022-12-19T05:11:00;2.40;99.90
25058;DHT22;13057;50.978;11.034;2022-12-19T05:13:28;2.40;99.90
25058;DHT22;13057;50.978;11.034;2022-12-19T05:16:02;2.40;99.90
25058;DHT22;13057;50.978;11.034;2022-12-19T05:18:30;2.40;99.90
25058;DHT22;13057;50.978;11.034;2022-12-19T05:20:58;2.50;99.90
25058;DHT22;13057;50.978;11.034;2022-12-19T05:23:29;2.50;99.90
25058;DHT22;13057;50.978;11.034;2022-12-19T05:25:58;2.50;99.90
25058;DHT22;13057;50.978;11.034;2022-12-19T05:28:25;2.50;99.90
25058;DHT22;13057;50.978;11.034;2022-12-19T05:30:51;2.50;99.90
25058;DHT22;13057;50.978;11.034;2022-12-19T05:33:16;2.50;99.90
25058;DHT22;13057;50.978;11.034;2022-12-19T05:35:43;2.50;99.90
25058;DHT22;13057;50.978;11.034;2022-12-19T05:38:08;2.60;99.90
25058;DHT22;13057;50.978;11.034;2022-12-19T05:40:34;2.60;99.90
25058;DHT22;13057;50.978;11.034;2022-12-19T05:43:01;2.60;99.90
25058;DHT22;13057;50.978;11.034;2022-12-19T05:45:28;2.60;99.90
25058;DHT22;13057;50.978;11.034;2022-12-19T05:47:55;2.60;99.90
25058;DHT22;13057;50.978;11.034;2022-12-19T05:50:21;2.70;99.90
25058;DHT22;13057;50.978;11.034;2022-12-19T05:52:47;2.70;99.90
25058;DHT22;13057;50.978;11.034;2022-12-19T05:55:12;2.70;99.90
25058;DHT22;13057;50.978;11.034;2022-12-19T05:57:38;2.70;99.90
25058;DHT22;13057;50.978;11.034;2022-12-19T06:00:07;2.70;99.90
25058;DHT22;13057;50.978;11.034;2022-12-19T06:02:34;2.80;99.90
25058;DHT22;13057;50.978;11.034;2022-12-19T06:05:01;2.80;99.90
25058;DHT22;13057;50.978;11.034;2022-12-19T06:07:28;2.80;99.80
25058;DHT22;13057;50.978;11.034;2022-12-19T06:09:55;2.80;99.90
25058;DHT22;13057;50.978;11.034;2022-12-19T06:12:21;2.80;99.80
25058;DHT22;13057;50.978;11.034;2022-12-19T06:14:47;2.80;99.90
25058;DHT22;13057;50.978;11.034;2022-12-19T06:17:13;2.80;99.80
25058;DHT22;13057;50.978;11.034;2022-12-19T06:19:39;2.80;99.80
25058;DHT22;13057;50.978;11.034;2022-12-19T06:22:06;2.80;99.80
25058;DHT22;13057;50.978;11.034;2022-12-19T06:24:32;2.80;99.90
25058;DHT22;13057;50.978;11.034;2022-12-19T06:26:59;2.80;99.80
25058;DHT22;13057;50.978;11.034;2022-12-19T06:29:26;2.80;99.90
25058;DHT22;13057;50.978;11.034;2022-12-19T06:31:52;2.90;99.60
25058;DHT22;13057;50.978;11.034;2022-12-19T06:34:18;2.90;99.50
25058;DHT22;13057;50.978;11.034;2022-12-19T06:36:44;2.90;99.60
25058;DHT22;13057;50.978;11.034;2022-12-19T06:39:13;3.00;99.40
25058;DHT22;13057;50.978;11.034;2022-12-19T06:41:38;3.00;99.30
25058;DHT22;13057;50.978;11.034;2022-12-19T06:44:16;3.00;99.20
25058;DHT22;13057;50.978;11.034;2022-12-19T06:46:43;3.00;99.50
25058;DHT22;13057;50.978;11.034;2022-12-19T06:49:10;3.10;99.40
25058;DHT22;13057;50.978;11.034;2022-12-19T06:51:37;3.10;99.10
25058;DHT22;13057;50.978;11.034;2022-12-19T06:54:04;3.10;98.90
25058;DHT22;13057;50.978;11.034;2022-12-19T06:56:35;3.10;99.20
25058;DHT22;13057;50.978;11.034;2022-12-19T06:59:04;3.10;99.70
25058;DHT22;13057;50.978;11.034;2022-12-19T07:01:53;3.10;99.80
25058;DHT22;13057;50.978;11.034;2022-12-19T07:04:30;3.10;99.90
25058;DHT22;13057;50.978;11.034;2022-12-19T07:06:57;3.10;99.90
25058;DHT22;13057;50.978;11.034;2022-12-19T07:09:29;3.10;99.90
25058;DHT22;13057;50.978;11.034;2022-12-19T07:11:55;3.20;99.90
25058;DHT22;13057;50.978;11.034;2022-12-19T07:14:21;3.20;99.90
25058;DHT22;13057;50.978;11.034;2022-12-19T07:16:47;3.20;99.90
25058;DHT22;13057;50.978;11.034;2022-12-19T07:19:15;3.30;99.90
25058;DHT22;13057;50.978;11.034;2022-12-19T07:21:41;3.30;99.90
25058;DHT22;13057;50.978;11.034;2022-12-19T07:24:08;3.30;99.90
25058;DHT22;13057;50.978;11.034;2022-12-19T07:26:36;3.30;99.90
25058;DHT22;13057;50.978;11.034;2022-12-19T07:29:03;3.30;99.90
25058;DHT22;13057;50.978;11.034;2022-12-19T07:31:30;3.30;99.90
25058;DHT22;13057;50.978;11.034;2022-12-19T07:33:56;3.30;99.90
25058;DHT22;13057;50.978;11.034;2022-12-19T07:36:22;3.30;99.90
25058;DHT22;13057;50.978;11.034;2022-12-19T07:38:48;3.30;99.90
25058;DHT22;13057;50.978;11.034;2022-12-19T07:41:15;3.20;99.90
25058;DHT22;13057;50.978;11.034;2022-12-19T07:43:41;3.30;99.90
25058;DHT22;13057;50.978;11.034;2022-12-19T07:46:08;3.30;99.90
25058;DHT22;13057;50.978;11.034;2022-12-19T07:48:37;3.30;99.90
25058;DHT22;13057;50.978;11.034;2022-12-19T07:51:05;3.40;99.90
25058;DHT22;13057;50.978;11.034;2022-12-19T07:53:47;3.40;99.90
25058;DHT22;13057;50.978;11.034;2022-12-19T07:56:13;3.40;99.90
25058;DHT22;13057;50.978;11.034;2022-12-19T07:58:40;3.40;99.90
25058;DHT22;13057;50.978;11.034;2022-12-19T08:01:07;3.40;99.90
25058;DHT22;13057;50.978;11.034;2022-12-19T08:03:34;3.40;99.90
25058;DHT22;13057;50.978;11.034;2022-12-19T08:06:02;3.50;99.90
25058;DHT22;13057;50.978;11.034;2022-12-19T08:08:29;3.50;99.90
25058;DHT22;13057;50.978;11.034;2022-12-19T08:10:56;3.50;99.90
25058;DHT22;13057;50.978;11.034;2022-12-19T08:13:22;3.50;99.90
25058;DHT22;13057;50.978;11.034;2022-12-19T08:15:48;3.50;99.90
25058;DHT22;13057;50.978;11.034;2022-12-19T08:18:13;3.50;99.90
25058;DHT22;13057;50.978;11.034;2022-12-19T08:20:43;3.60;99.90
25058;DHT22;13057;50.978;11.034;2022-12-19T08:23:14;3.60;99.90
25058;DHT22;13057;50.978;11.034;2022-12-19T08:25:41;3.60;99.90
25058;DHT22;13057;50.978;11.034;2022-12-19T08:28:07;3.60;99.90
25058;DHT22;13057;50.978;11.034;2022-12-19T08:30:37;3.70;99.90
25058;DHT22;13057;50.978;11.034;2022-12-19T08:33:04;3.70;99.90
25058;DHT22;13057;50.978;11.034;2022-12-19T08:35:30;3.70;99.90
25058;DHT22;13057;50.978;11.034;2022-12-19T08:37:56;3.70;99.90
25058;DHT22;13057;50.978;11.034;2022-12-19T08:40:22;3.70;99.90
25058;DHT22;13057;50.978;11.034;2022-12-19T08:42:49;3.70;99.90
25058;DHT22;13057;50.978;11.034;2022-12-19T08:45:16;3.70;99.90
25058;DHT22;13057;50.978;11.034;2022-12-19T08:47:44;3.70;99.90
25058;DHT22;13057;50.978;11.034;2022-12-19T08:50:10;3.60;99.90
25058;DHT22;13057;50.978;11.034;2022-12-19T08:52:37;3.60;99.90
25058;DHT22;13057;50.978;11.034;2022-12-19T08:55:03;3.60;99.90
25058;DHT22;13057;50.978;11.034;2022-12-19T08:57:29;3.60;99.90
25058;DHT22;13057;50.978;11.034;2022-12-19T08:59:55;3.60;99.90
25058;DHT22;13057;50.978;11.034;2022-12-19T09:02:21;3.60;99.90
25058;DHT22;13057;50.978;11.034;2022-12-19T09:04:48;3.70;99.90
25058;DHT22;13057;50.978;11.034;2022-12-19T09:07:14;3.80;99.90
25058;DHT22;13057;50.978;11.034;2022-12-19T09:09:41;3.90;99.90
25058;DHT22;13057;50.978;11.034;2022-12-19T09:12:08;4.00;99.90
25058;DHT22;13057;50.978;11.034;2022-12-19T09:14:34;4.10;99.90
25058;DHT22;13057;50.978;11.034;2022-12-19T09:17:00;4.20;99.90
25058;DHT22;13057;50.978;11.034;2022-12-19T09:19:27;4.30;99.90
25058;DHT22;13057;50.978;11.034;2022-12-19T09:21:53;4.30;99.90
25058;DHT22;13057;50.978;11.034;2022-12-19T09:24:18;4.40;99.90
25058;DHT22;13057;50.978;11.034;2022-12-19T09:26:46;4.40;99.90
25058;DHT22;13057;50.978;11.034;2022-12-19T09:29:13;4.50;99.90
25058;DHT22;13057;50.978;11.034;2022-12-19T09:31:43;4.60;99.90
25058;DHT22;13057;50.978;11.034;2022-12-19T09:34:11;4.70;99.90
25058;DHT22;13057;50.978;11.034;2022-12-19T09:36:37;4.70;99.90
25058;DHT22;13057;50.978;11.034;2022-12-19T09:39:04;4.80;99.90
25058;DHT22;13057;50.978;11.034;2022-12-19T09:41:39;4.90;99.90
25058;DHT22;13057;50.978;11.034;2022-12-19T09:44:37;5.00;99.90
25058;DHT22;13057;50.978;11.034;2022-12-19T09:47:13;5.10;99.90
25058;DHT22;13057;50.978;11.034;2022-12-19T09:49:42;5.20;99.90
25058;DHT22;13057;50.978;11.034;2022-12-19T09:52:23;5.30;99.90
25058;DHT22;13057;50.978;11.034;2022-12-19T09:55:23;5.50;99.90
25058;DHT22;13057;50.978;11.034;2022-12-19T09:58:04;5.50;99.90
25058;DHT22;13057;50.978;11.034;2022-12-19T10:00:33;5.70;99.90
25058;DHT22;13057;50.978;11.034;2022-12-19T10:03:13;5.70;99.90
25058;DHT22;13057;50.978;11.034;2022-12-19T10:05:49;5.90;99.90
25058;DHT22;13057;50.978;11.034;2022-12-19T10:08:30;6.00;99.90
25058;DHT22;13057;50.978;11.034;2022-12-19T10:11:08;6.20;99.90
25058;DHT22;13057;50.978;11.034;2022-12-19T10:13:52;6.10;99.90
25058;DHT22;13057;50.978;11.034;2022-12-19T10:19:26;6.20;99.90
25058;DHT22;13057;50.978;11.034;2022-12-19T10:22:04;6.20;99.90
25058;DHT22;13057;50.978;11.034;2022-12-19T10:24:49;6.30;99.90
25058;DHT22;13057;50.978;11.034;2022-12-19T10:27:33;6.30;99.90
25058;DHT22;13057;50.978;11.034;2022-12-19T10:30:14;6.50;99.90
25058;DHT22;13057;50.978;11.034;2022-12-19T10:33:02;6.60;99.90
25058;DHT22;13057;50.978;11.034;2022-12-19T10:35:36;6.70;99.90
25058;DHT22;13057;50.978;11.034;2022-12-19T10:38:18;6.70;99.90
25058;DHT22;13057;50.978;11.034;2022-12-19T10:41:01;6.70;99.90
25058;DHT22;13057;50.978;11.034;2022-12-19T10:43:53;6.80;99.90
25058;DHT22;13057;50.978;11.034;2022-12-19T10:46:41;6.80;99.90
25058;DHT22;13057;50.978;11.034;2022-12-19T10:49:15;6.90;99.90
25058;DHT22;13057;50.978;11.034;2022-12-19T10:54:22;7.10;99.90
25058;DHT22;13057;50.978;11.034;2022-12-19T10:56:48;7.10;99.90
25058;DHT22;13057;50.978;11.034;2022-12-19T10:59:16;7.20;99.90
25058;DHT22;13057;50.978;11.034;2022-12-19T11:01:43;7.30;99.90
25058;DHT22;13057;50.978;11.034;2022-12-19T11:04:22;7.40;99.90
25058;DHT22;13057;50.978;11.034;2022-12-19T11:07:03;7.40;99.90
25058;DHT22;13057;50.978;11.034;2022-12-19T11:09:37;7.40;99.90
25058;DHT22;13057;50.978;11.034;2022-12-19T11:12:13;7.50;99.90
25058;DHT22;13057;50.978;11.034;2022-12-19T11:14:45;7.50;99.90
25058;DHT22;13057;50.978;11.034;2022-12-19T11:19:48;7.60;99.90
25058;DHT22;13057;50.978;11.034;2022-12-19T11:22:20;7.60;99.90
25058;DHT22;13057;50.978;11.034;2022-12-19T11:24:51;7.70;99.90
25058;DHT22;13057;50.978;11.034;2022-12-19T11:27:35;7.80;99.90
25058;DHT22;13057;50.978;11.034;2022-12-19T11:30:08;7.90;99.90
25058;DHT22;13057;50.978;11.034;2022-12-19T11:32:45;7.90;99.90
25058;DHT22;13057;50.978;11.034;2022-12-19T11:35:20;7.90;99.90
25058;DHT22;13057;50.978;11.034;2022-12-19T11:37:56;7.90;99.90
25058;DHT22;13057;50.978;11.034;2022-12-19T11:40:32;7.90;99.90
25058;DHT22;13057;50.978;11.034;2022-12-19T11:43:20;7.80;99.90
25058;DHT22;13057;50.978;11.034;2022-12-19T11:46:04;7.70;99.90
25058;DHT22;13057;50.978;11.034;2022-12-19T11:48:45;7.60;99.90
25058;DHT22;13057;50.978;11.034;2022-12-19T11:51:30;7.40;99.90
25058;DHT22;13057;50.978;11.034;2022-12-19T11:54:22;7.40;99.90
25058;DHT22;13057;50.978;11.034;2022-12-19T11:56:49;7.40;99.90
25058;DHT22;13057;50.978;11.034;2022-12-19T11:59:21;7.40;99.90
25058;DHT22;13057;50.978;11.034;2022-12-19T12:01:59;7.30;99.90
25058;DHT22;13057;50.978;11.034;2022-12-19T12:04:45;7.30;99.90
25058;DHT22;13057;50.978;11.034;2022-12-19T12:07:16;7.50;99.90
25058;DHT22;13057;50.978;11.034;2022-12-19T12:09:52;7.50;99.90
25058;DHT22;13057;50.978;11.034;2022-12-19T12:12:32;7.60;99.90
25058;DHT22;13057;50.978;11.034;2022-12-19T12:18:13;7.50;99.90
25058;DHT22;13057;50.978;11.034;2022-12-19T12:20:55;7.40;99.90
25058;DHT22;13057;50.978;11.034;2022-12-19T12:23:27;7.30;99.90
25058;DHT22;13057;50.978;11.034;2022-12-19T12:26:17;7.30;99.90
25058;DHT22;13057;50.978;11.034;2022-12-19T12:29:02;7.50;99.90
25058;DHT22;13057;50.978;11.034;2022-12-19T12:31:44;7.60;99.90
25058;DHT22;13057;50.978;11.034;2022-12-19T12:34:27;7.60;99.90
25058;DHT22;13057;50.978;11.034;2022-12-19T12:37:15;7.50;99.90
25058;DHT22;13057;50.978;11.034;2022-12-19T12:40:05;7.50;99.90
25058;DHT22;13057;50.978;11.034;2022-12-19T12:42:59;7.40;99.90
25058;DHT22;13057;50.978;11.034;2022-12-19T12:45:39;7.50;99.90
25058;DHT22;13057;50.978;11.034;2022-12-19T12:50:52;7.80;99.90
25058;DHT22;13057;50.978;11.034;2022-12-19T12:53:23;7.90;99.90
25058;DHT22;13057;50.978;11.034;2022-12-19T12:55:53;8.10;99.90
25058;DHT22;13057;50.978;11.034;2022-12-19T12:58:42;8.10;99.90
25058;DHT22;13057;50.978;11.034;2022-12-19T13:01:21;8.00;99.90
25058;DHT22;13057;50.978;11.034;2022-12-19T13:03:54;8.00;99.90
25058;DHT22;13057;50.978;11.034;2022-12-19T13:06:26;8.00;99.90
25058;DHT22;13057;50.978;11.034;2022-12-19T13:09:16;8.10;99.90
25058;DHT22;13057;50.978;11.034;2022-12-19T13:11:48;8.20;99.90
25058;DHT22;13057;50.978;11.034;2022-12-19T13:14:45;8.20;99.90
25058;DHT22;13057;50.978;11.034;2022-12-19T13:17:23;8.10;99.90
25058;DHT22;13057;50.978;11.034;2022-12-19T13:19:55;8.20;99.90
25058;DHT22;13057;50.978;11.034;2022-12-19T13:22:37;8.20;99.90
25058;DHT22;13057;50.978;11.034;2022-12-19T13:28:35;8.20;99.90
25058;DHT22;13057;50.978;11.034;2022-12-19T13:31:18;8.20;99.90
25058;DHT22;13057;50.978;11.034;2022-12-19T13:34:09;8.20;99.90
25058;DHT22;13057;50.978;11.034;2022-12-19T13:37:21;8.30;99.90
25058;DHT22;13057;50.978;11.034;2022-12-19T13:39:38;8.40;99.90
25058;DHT22;13057;50.978;11.034;2022-12-19T13:42:16;8.40;99.90
25058;DHT22;13057;50.978;11.034;2022-12-19T13:44:57;8.50;99.90
25058;DHT22;13057;50.978;11.034;2022-12-19T13:47:25;8.50;99.90
25058;DHT22;13057;50.978;11.034;2022-12-19T13:49:53;8.40;99.90
25058;DHT22;13057;50.978;11.034;2022-12-19T13:52:20;8.50;99.90
25058;DHT22;13057;50.978;11.034;2022-12-19T13:54:50;8.50;99.90
25058;DHT22;13057;50.978;11.034;2022-12-19T13:57:23;8.40;99.90
25058;DHT22;13057;50.978;11.034;2022-12-19T13:59:52;8.40;99.90
25058;DHT22;13057;50.978;11.034;2022-12-19T14:02:28;8.50;99.90
25058;DHT22;13057;50.978;11.034;2022-12-19T14:04:55;8.50;99.90
25058;DHT22;13057;50.978;11.034;2022-12-19T14:07:33;8.50;99.90
25058;DHT22;13057;50.978;11.034;2022-12-19T14:10:00;8.70;99.90
25058;DHT22;13057;50.978;11.034;2022-12-19T14:12:28;8.60;99.90
25058;DHT22;13057;50.978;11.034;2022-12-19T14:15:30;8.40;99.90
25058;DHT22;13057;50.978;11.034;2022-12-19T14:17:59;8.30;99.90
25058;DHT22;13057;50.978;11.034;2022-12-19T14:20:27;8.20;99.90
25058;DHT22;13057;50.978;11.034;2022-12-19T14:22:58;8.20;99.90
25058;DHT22;13057;50.978;11.034;2022-12-19T14:25:34;8.20;99.90
25058;DHT22;13057;50.978;11.034;2022-12-19T14:28:05;8.30;99.90
25058;DHT22;13057;50.978;11.034;2022-12-19T14:30:35;8.30;99.90
25058;DHT22;13057;50.978;11.034;2022-12-19T14:33:08;8.30;99.90
25058;DHT22;13057;50.978;11.034;2022-12-19T14:35:39;8.20;99.90
25058;DHT22;13057;50.978;11.034;2022-12-19T14:38:16;8.20;99.90
25058;DHT22;13057;50.978;11.034;2022-12-19T14:40:44;8.10;99.90
25058;DHT22;13057;50.978;11.034;2022-12-19T14:43:19;8.20;99.90
25058;DHT22;13057;50.978;11.034;2022-12-19T14:46:24;8.20;99.90
25058;DHT22;13057;50.978;11.034;2022-12-19T14:48:54;8.20;99.90
25058;DHT22;13057;50.978;11.034;2022-12-19T14:51:32;8.20;99.90
25058;DHT22;13057;50.978;11.034;2022-12-19T14:54:17;8.30;99.90
25058;DHT22;13057;50.978;11.034;2022-12-19T14:56:53;8.20;99.90
25058;DHT22;13057;50.978;11.034;2022-12-19T14:59:32;8.20;99.90
25058;DHT22;13057;50.978;11.034;2022-12-19T15:02:13;8.20;99.90
25058;DHT22;13057;50.978;11.034;2022-12-19T15:04:46;8.20;99.90
25058;DHT22;13057;50.978;11.034;2022-12-19T15:07:22;8.20;99.90
25058;DHT22;13057;50.978;11.034;2022-12-19T15:09:58;8.10;99.90
25058;DHT22;13057;50.978;11.034;2022-12-19T15:12:48;8.00;99.90
25058;DHT22;13057;50.978;11.034;2022-12-19T15:15:43;8.00;99.90
25058;DHT22;13057;50.978;11.034;2022-12-19T15:18:21;8.00;99.90
25058;DHT22;13057;50.978;11.034;2022-12-19T15:20:53;8.00;99.90
25058;DHT22;13057;50.978;11.034;2022-12-19T15:23:22;7.90;99.90
25058;DHT22;13057;50.978;11.034;2022-12-19T15:25:50;7.90;99.90
25058;DHT22;13057;50.978;11.034;2022-12-19T15:28:20;7.80;99.90
25058;DHT22;13057;50.978;11.034;2022-12-19T15:30:54;7.70;99.90
25058;DHT22;13057;50.978;11.034;2022-12-19T15:33:22;7.60;99.90
25058;DHT22;13057;50.978;11.034;2022-12-19T15:35:49;7.60;99.90
25058;DHT22;13057;50.978;11.034;2022-12-19T15:38:15;7.60;99.90
25058;DHT22;13057;50.978;11.034;2022-12-19T15:40:42;7.60;99.90
25058;DHT22;13057;50.978;11.034;2022-12-19T15:43:15;7.60;99.90
25058;DHT22;13057;50.978;11.034;2022-12-19T15:45:42;7.50;99.90
25058;DHT22;13057;50.978;11.034;2022-12-19T15:48:13;7.50;99.90
25058;DHT22;13057;50.978;11.034;2022-12-19T15:50:40;7.50;99.90
25058;DHT22;13057;50.978;11.034;2022-12-19T15:55:58;7.40;99.90
25058;DHT22;13057;50.978;11.034;2022-12-19T15:58:26;7.50;99.90
25058;DHT22;13057;50.978;11.034;2022-12-19T16:00:57;7.60;99.90
25058;DHT22;13057;50.978;11.034;2022-12-19T16:03:23;7.50;99.90
25058;DHT22;13057;50.978;11.034;2022-12-19T16:05:51;7.40;99.90
25058;DHT22;13057;50.978;11.034;2022-12-19T16:08:19;7.50;99.90
25058;DHT22;13057;50.978;11.034;2022-12-19T16:10:51;7.50;99.90
25058;DHT22;13057;50.978;11.034;2022-12-19T16:13:22;7.40;99.90
25058;DHT22;13057;50.978;11.034;2022-12-19T16:15:49;7.30;99.90
25058;DHT22;13057;50.978;11.034;2022-12-19T16:18:16;7.20;99.90
25058;DHT22;13057;50.978;11.034;2022-12-19T16:20:44;7.20;99.90
25058;DHT22;13057;50.978;11.034;2022-12-19T16:23:10;7.30;99.90
25058;DHT22;13057;50.978;11.034;2022-12-19T16:25:40;7.40;99.90